sensor_id;sensor_type;location;lat;lon;timestamp;temperature;humidity
80134;SHT30;69443;51.442;10.564;2023-08-07T00:02:15;17.76;62.05
80134;SHT30;69443;51.442;10.564;2023-08-07T00:04:40;17.75;62.07
80134;SHT30;69443;51.442;10.564;2023-08-07T00:07:06;17.73;62.35
80134;SHT30;69443;51.442;10.564;2023-08-07T00:09:31;17.73;62.28
80134;SHT30;69443;51.442;10.564;2023-08-07T00:11:57;17.73;62.38
80134;SHT30;69443;51.442;10.564;2023-08-07T00:14:22;17.71;62.33
80134;SHT30;69443;51.442;10.564;2023-08-07T00:16:47;17.71;62.29
80134;SHT30;69443;51.442;10.564;2023-08-07T00:19:13;17.69;62.38
80134;SHT30;69443;51.442;10.564;2023-08-07T00:21:38;17.66;62.48
80134;SHT30;69443;51.442;10.564;2023-08-07T00:24:04;17.61;62.47
80134;SHT30;69443;51.442;10.564;2023-08-07T00:26:29;17.59;62.47
80134;SHT30;69443;51.442;10.564;2023-08-07T00:28:57;17.56;62.55
80134;SHT30;69443;51.442;10.564;2023-08-07T00:31:22;17.56;62.61
80134;SHT30;69443;51.442;10.564;2023-08-07T00:33:48;17.56;62.61
80134;SHT30;69443;51.442;10.564;2023-08-07T00:36:16;17.56;62.61
80134;SHT30;69443;51.442;10.564;2023-08-07T00:38:42;17.55;62.70
80134;SHT30;69443;51.442;10.564;2023-08-07T00:41:07;17.52;62.70
80134;SHT30;69443;51.442;10.564;2023-08-07T00:43:35;17.51;62.75
80134;SHT30;69443;51.442;10.564;2023-08-07T00:46:00;17.48;62.78
80134;SHT30;69443;51.442;10.564;2023-08-07T00:48:26;17.45;62.83
80134;SHT30;69443;51.442;10.564;2023-08-07T00:50:52;17.44;62.95
80134;SHT30;69443;51.442;10.564;2023-08-07T00:53:19;17.44;62.91
80134;SHT30;69443;51.442;10.564;2023-08-07T00:55:44;17.42;62.94
80134;SHT30;69443;51.442;10.564;2023-08-07T00:58:10;17.37;62.92
80134;SHT30;69443;51.442;10.564;2023-08-07T01:00:36;17.38;62.99
80134;SHT30;69443;51.442;10.564;2023-08-07T01:03:05;17.37;63.04
80134;SHT30;69443;51.442;10.564;2023-08-07T01:05:30;17.35;63.06
80134;SHT30;69443;51.442;10.564;2023-08-07T01:07:56;17.34;63.04
80134;SHT30;69443;51.442;10.564;2023-08-07T01:10:39;17.31;63.28
80134;SHT30;69443;51.442;10.564;2023-08-07T01:13:16;17.31;63.17
80134;SHT30;69443;51.442;10.564;2023-08-07T01:15:44;17.30;63.30
80134;SHT30;69443;51.442;10.564;2023-08-07T01:18:11;17.30;63.27
80134;SHT30;69443;51.442;10.564;2023-08-07T01:20:36;17.24;63.21
80134;SHT30;69443;51.442;10.564;2023-08-07T01:23:02;17.24;63.13
80134;SHT30;69443;51.442;10.564;2023-08-07T01:25:27;17.23;63.19
80134;SHT30;69443;51.442;10.564;2023-08-07T01:30:42;17.18;63.14
80134;SHT30;69443;51.442;10.564;2023-08-07T01:33:17;17.18;63.22
80134;SHT30;69443;51.442;10.564;2023-08-07T01:35:51;17.16;63.45
80134;SHT30;69443;51.442;10.564;2023-08-07T01:38:20;17.14;63.39
80134;SHT30;69443;51.442;10.564;2023-08-07T01:40:47;17.11;63.38
80134;SHT30;69443;51.442;10.564;2023-08-07T01:43:13;17.10;63.46
80134;SHT30;69443;51.442;10.564;2023-08-07T01:45:38;17.07;63.54
80134;SHT30;69443;51.442;10.564;2023-08-07T01:48:04;17.07;63.62
80134;SHT30;69443;51.442;10.564;2023-08-07T01:50:29;17.03;63.51
80134;SHT30;69443;51.442;10.564;2023-08-07T01:52:55;17.02;63.57
80134;SHT30;69443;51.442;10.564;2023-08-07T01:55:23;17.02;63.62
80134;SHT30;69443;51.442;10.564;2023-08-07T01:57:48;17.00;63.65
80134;SHT30;69443;51.442;10.564;2023-08-07T02:00:14;16.99;63.76
80134;SHT30;69443;51.442;10.564;2023-08-07T02:02:39;16.96;63.81
80134;SHT30;69443;51.442;10.564;2023-08-07T02:05:05;16.94;63.76
80134;SHT30;69443;51.442;10.564;2023-08-07T02:07:31;16.94;63.91
80134;SHT30;69443;51.442;10.564;2023-08-07T02:09:57;16.90;63.82
80134;SHT30;69443;51.442;10.564;2023-08-07T02:12:23;16.90;63.79
80134;SHT30;69443;51.442;10.564;2023-08-07T02:14:49;16.87;63.84
80134;SHT30;69443;51.442;10.564;2023-08-07T02:17:15;16.84;63.81
80134;SHT30;69443;51.442;10.564;2023-08-07T02:19:40;16.83;63.92
80134;SHT30;69443;51.442;10.564;2023-08-07T02:22:05;16.82;63.84
80134;SHT30;69443;51.442;10.564;2023-08-07T02:24:31;16.77;63.94
80134;SHT30;69443;51.442;10.564;2023-08-07T02:26:56;16.77;63.96
80134;SHT30;69443;51.442;10.564;2023-08-07T02:29:22;16.75;64.02
80134;SHT30;69443;51.442;10.564;2023-08-07T02:31:47;16.72;64.04
80134;SHT30;69443;51.442;10.564;2023-08-07T02:34:12;16.73;64.08
80134;SHT30;69443;51.442;10.564;2023-08-07T02:36:38;16.73;64.06
80134;SHT30;69443;51.442;10.564;2023-08-07T02:39:04;16.68;64.07
80134;SHT30;69443;51.442;10.564;2023-08-07T02:41:29;16.68;64.07
80134;SHT30;69443;51.442;10.564;2023-08-07T02:43:56;16.68;64.15
80134;SHT30;69443;51.442;10.564;2023-08-07T02:46:21;16.65;64.12
80134;SHT30;69443;51.442;10.564;2023-08-07T02:48:47;16.61;64.16
80134;SHT30;69443;51.442;10.564;2023-08-07T02:51:12;16.62;64.12
80134;SHT30;69443;51.442;10.564;2023-08-07T02:53:37;16.59;64.15
80134;SHT30;69443;51.442;10.564;2023-08-07T02:56:03;16.59;64.24
80134;SHT30;69443;51.442;10.564;2023-08-07T02:58:28;16.59;64.26
80134;SHT30;69443;51.442;10.564;2023-08-07T03:00:54;16.56;64.28
80134;SHT30;69443;51.442;10.564;2023-08-07T03:03:20;16.54;64.36
80134;SHT30;69443;51.442;10.564;2023-08-07T03:05:51;16.52;64.50
80134;SHT30;69443;51.442;10.564;2023-08-07T03:08:17;16.52;64.37
80134;SHT30;69443;51.442;10.564;2023-08-07T03:10:50;16.49;64.45
80134;SHT30;69443;51.442;10.564;2023-08-07T03:13:15;16.49;64.36
80134;SHT30;69443;51.442;10.564;2023-08-07T03:15:41;16.49;64.42
80134;SHT30;69443;51.442;10.564;2023-08-07T03:18:06;16.49;64.36
80134;SHT30;69443;51.442;10.564;2023-08-07T03:20:32;16.48;64.33
80134;SHT30;69443;51.442;10.564;2023-08-07T03:22:57;16.47;64.35
80134;SHT30;69443;51.442;10.564;2023-08-07T03:25:22;16.44;64.34
80134;SHT30;69443;51.442;10.564;2023-08-07T03:27:48;16.42;64.42
80134;SHT30;69443;51.442;10.564;2023-08-07T03:30:13;16.45;64.41
80134;SHT30;69443;51.442;10.564;2023-08-07T03:32:38;16.41;64.42
80134;SHT30;69443;51.442;10.564;2023-08-07T03:35:04;16.40;64.43
80134;SHT30;69443;51.442;10.564;2023-08-07T03:37:29;16.38;64.44
80134;SHT30;69443;51.442;10.564;2023-08-07T03:39:55;16.35;64.57
80134;SHT30;69443;51.442;10.564;2023-08-07T03:42:20;16.34;64.58
80134;SHT30;69443;51.442;10.564;2023-08-07T03:44:45;16.34;64.62
80134;SHT30;69443;51.442;10.564;2023-08-07T03:47:11;16.32;64.60
80134;SHT30;69443;51.442;10.564;2023-08-07T03:49:36;16.30;64.65
80134;SHT30;69443;51.442;10.564;2023-08-07T03:52:02;16.30;64.59
80134;SHT30;69443;51.442;10.564;2023-08-07T03:54:27;16.28;64.65
80134;SHT30;69443;51.442;10.564;2023-08-07T03:56:53;16.25;64.68
80134;SHT30;69443;51.442;10.564;2023-08-07T03:59:18;16.24;64.75
80134;SHT30;69443;51.442;10.564;2023-08-07T04:01:43;16.22;64.79
80134;SHT30;69443;51.442;10.564;2023-08-07T04:04:09;16.22;64.82
80134;SHT30;69443;51.442;10.564;2023-08-07T04:06:34;16.21;64.92
80134;SHT30;69443;51.442;10.564;2023-08-07T04:08:59;16.20;64.85
80134;SHT30;69443;51.442;10.564;2023-08-07T04:11:25;16.20;64.97
80134;SHT30;69443;51.442;10.564;2023-08-07T04:13:51;16.18;65.07
80134;SHT30;69443;51.442;10.564;2023-08-07T04:16:17;16.16;65.07
80134;SHT30;69443;51.442;10.564;2023-08-07T04:18:42;16.13;65.06
80134;SHT30;69443;51.442;10.564;2023-08-07T04:21:07;16.16;65.04
80134;SHT30;69443;51.442;10.564;2023-08-07T04:23:33;16.14;65.03
80134;SHT30;69443;51.442;10.564;2023-08-07T04:25:59;16.11;65.19
80134;SHT30;69443;51.442;10.564;2023-08-07T04:28:24;16.10;65.21
80134;SHT30;69443;51.442;10.564;2023-08-07T04:30:51;16.10;65.29
80134;SHT30;69443;51.442;10.564;2023-08-07T04:33:16;16.11;65.27
80134;SHT30;69443;51.442;10.564;2023-08-07T04:35:42;16.09;65.33
80134;SHT30;69443;51.442;10.564;2023-08-07T04:38:07;16.06;65.32
80134;SHT30;69443;51.442;10.564;2023-08-07T04:40:33;16.07;65.31
80134;SHT30;69443;51.442;10.564;2023-08-07T04:42:58;16.03;65.30
80134;SHT30;69443;51.442;10.564;2023-08-07T04:45:23;16.07;65.33
80134;SHT30;69443;51.442;10.564;2023-08-07T04:47:49;16.04;65.35
80134;SHT30;69443;51.442;10.564;2023-08-07T04:50:14;16.04;65.40
80134;SHT30;69443;51.442;10.564;2023-08-07T04:52:40;16.03;65.45
80134;SHT30;69443;51.442;10.564;2023-08-07T04:55:05;16.03;65.46
80134;SHT30;69443;51.442;10.564;2023-08-07T04:57:31;16.03;65.47
80134;SHT30;69443;51.442;10.564;2023-08-07T04:59:56;16.04;65.48
80134;SHT30;69443;51.442;10.564;2023-08-07T05:02:21;16.03;65.45
80134;SHT30;69443;51.442;10.564;2023-08-07T05:04:47;16.02;65.48
80134;SHT30;69443;51.442;10.564;2023-08-07T05:07:12;16.02;65.55
80134;SHT30;69443;51.442;10.564;2023-08-07T05:09:38;16.02;65.51
80134;SHT30;69443;51.442;10.564;2023-08-07T05:12:04;16.06;65.53
80134;SHT30;69443;51.442;10.564;2023-08-07T05:14:29;16.04;65.56
80134;SHT30;69443;51.442;10.564;2023-08-07T05:16:55;16.03;65.57
80134;SHT30;69443;51.442;10.564;2023-08-07T05:19:20;16.04;65.58
80134;SHT30;69443;51.442;10.564;2023-08-07T05:21:47;16.07;65.62
80134;SHT30;69443;51.442;10.564;2023-08-07T05:24:15;16.06;65.58
80134;SHT30;69443;51.442;10.564;2023-08-07T05:26:41;16.07;65.64
80134;SHT30;69443;51.442;10.564;2023-08-07T05:29:06;16.09;65.62
80134;SHT30;69443;51.442;10.564;2023-08-07T05:31:32;16.09;65.63
80134;SHT30;69443;51.442;10.564;2023-08-07T05:33:57;16.09;65.61
80134;SHT30;69443;51.442;10.564;2023-08-07T05:36:23;16.13;65.63
80134;SHT30;69443;51.442;10.564;2023-08-07T05:38:48;16.14;65.58
80134;SHT30;69443;51.442;10.564;2023-08-07T05:41:13;16.14;65.60
80134;SHT30;69443;51.442;10.564;2023-08-07T05:43:39;16.16;65.61
80134;SHT30;69443;51.442;10.564;2023-08-07T05:46:04;16.18;65.56
80134;SHT30;69443;51.442;10.564;2023-08-07T05:48:29;16.18;65.56
80134;SHT30;69443;51.442;10.564;2023-08-07T05:50:55;16.22;65.60
80134;SHT30;69443;51.442;10.564;2023-08-07T05:53:20;16.25;65.63
80134;SHT30;69443;51.442;10.564;2023-08-07T05:55:46;16.24;65.57
80134;SHT30;69443;51.442;10.564;2023-08-07T05:58:11;16.24;65.69
80134;SHT30;69443;51.442;10.564;2023-08-07T06:00:37;16.24;65.63
80134;SHT30;69443;51.442;10.564;2023-08-07T06:03:02;16.22;65.76
80134;SHT30;69443;51.442;10.564;2023-08-07T06:05:28;16.27;65.81
80134;SHT30;69443;51.442;10.564;2023-08-07T06:07:53;16.27;65.81
80134;SHT30;69443;51.442;10.564;2023-08-07T06:10:20;16.28;65.81
80134;SHT30;69443;51.442;10.564;2023-08-07T06:12:45;16.31;65.85
80134;SHT30;69443;51.442;10.564;2023-08-07T06:15:11;16.31;65.79
80134;SHT30;69443;51.442;10.564;2023-08-07T06:17:36;16.35;65.83
80134;SHT30;69443;51.442;10.564;2023-08-07T06:20:06;16.35;65.88
80134;SHT30;69443;51.442;10.564;2023-08-07T06:22:34;16.38;65.80
80134;SHT30;69443;51.442;10.564;2023-08-07T06:24:59;16.42;65.84
80134;SHT30;69443;51.442;10.564;2023-08-07T06:27:25;16.45;65.71
80134;SHT30;69443;51.442;10.564;2023-08-07T06:29:50;16.44;65.65
80134;SHT30;69443;51.442;10.564;2023-08-07T06:32:15;16.49;65.80
80134;SHT30;69443;51.442;10.564;2023-08-07T06:34:43;16.49;65.60
80134;SHT30;69443;51.442;10.564;2023-08-07T06:37:08;16.54;65.43
80134;SHT30;69443;51.442;10.564;2023-08-07T06:39:34;16.52;65.54
80134;SHT30;69443;51.442;10.564;2023-08-07T06:41:59;16.55;65.43
80134;SHT30;69443;51.442;10.564;2023-08-07T06:44:26;16.56;65.43
80134;SHT30;69443;51.442;10.564;2023-08-07T06:46:51;16.56;65.42
80134;SHT30;69443;51.442;10.564;2023-08-07T06:49:17;16.65;65.34
80134;SHT30;69443;51.442;10.564;2023-08-07T06:51:42;16.65;65.31
80134;SHT30;69443;51.442;10.564;2023-08-07T06:54:08;16.64;65.30
80134;SHT30;69443;51.442;10.564;2023-08-07T06:56:33;16.68;65.29
80134;SHT30;69443;51.442;10.564;2023-08-07T06:58:59;16.71;65.11
80134;SHT30;69443;51.442;10.564;2023-08-07T07:01:24;16.72;64.93
80134;SHT30;69443;51.442;10.564;2023-08-07T07:03:49;16.77;64.79
80134;SHT30;69443;51.442;10.564;2023-08-07T07:06:18;16.83;64.68
80134;SHT30;69443;51.442;10.564;2023-08-07T07:08:43;16.84;64.48
80134;SHT30;69443;51.442;10.564;2023-08-07T07:11:09;16.87;64.36
80134;SHT30;69443;51.442;10.564;2023-08-07T07:13:37;16.93;64.27
80134;SHT30;69443;51.442;10.564;2023-08-07T07:16:03;16.92;64.12
80134;SHT30;69443;51.442;10.564;2023-08-07T07:18:28;16.97;64.03
80134;SHT30;69443;51.442;10.564;2023-08-07T07:20:59;17.00;64.12
80134;SHT30;69443;51.442;10.564;2023-08-07T07:23:26;17.07;63.78
80134;SHT30;69443;51.442;10.564;2023-08-07T07:25:52;17.10;63.60
80134;SHT30;69443;51.442;10.564;2023-08-07T07:28:17;17.16;63.58
80134;SHT30;69443;51.442;10.564;2023-08-07T07:30:42;17.20;63.44
80134;SHT30;69443;51.442;10.564;2023-08-07T07:33:08;17.26;63.30
80134;SHT30;69443;51.442;10.564;2023-08-07T07:35:37;17.28;63.28
80134;SHT30;69443;51.442;10.564;2023-08-07T07:38:03;17.34;63.10
80134;SHT30;69443;51.442;10.564;2023-08-07T07:40:28;17.37;63.16
80134;SHT30;69443;51.442;10.564;2023-08-07T07:42:53;17.41;63.00
80134;SHT30;69443;51.442;10.564;2023-08-07T07:45:19;17.45;62.79
80134;SHT30;69443;51.442;10.564;2023-08-07T07:47:44;17.46;62.78
80134;SHT30;69443;51.442;10.564;2023-08-07T07:50:10;17.51;62.75
80134;SHT30;69443;51.442;10.564;2023-08-07T07:52:35;17.55;62.54
80134;SHT30;69443;51.442;10.564;2023-08-07T07:55:01;17.61;62.37
80134;SHT30;69443;51.442;10.564;2023-08-07T07:57:26;17.69;62.19
80134;SHT30;69443;51.442;10.564;2023-08-07T07:59:52;17.73;62.11
80134;SHT30;69443;51.442;10.564;2023-08-07T08:02:17;17.83;61.95
80134;SHT30;69443;51.442;10.564;2023-08-07T08:04:42;17.89;61.77
80134;SHT30;69443;51.442;10.564;2023-08-07T08:07:08;17.96;61.69
80134;SHT30;69443;51.442;10.564;2023-08-07T08:09:34;18.07;61.43
80134;SHT30;69443;51.442;10.564;2023-08-07T08:11:59;18.15;61.28
80134;SHT30;69443;51.442;10.564;2023-08-07T08:14:25;18.23;61.22
80134;SHT30;69443;51.442;10.564;2023-08-07T08:16:50;18.32;61.07
80134;SHT30;69443;51.442;10.564;2023-08-07T08:19:16;18.41;61.04
80134;SHT30;69443;51.442;10.564;2023-08-07T08:21:42;18.42;60.70
80134;SHT30;69443;51.442;10.564;2023-08-07T08:24:07;18.45;60.67
80134;SHT30;69443;51.442;10.564;2023-08-07T08:26:33;18.48;60.67
80134;SHT30;69443;51.442;10.564;2023-08-07T08:28:58;18.53;60.54
80134;SHT30;69443;51.442;10.564;2023-08-07T08:31:24;18.56;60.54
80134;SHT30;69443;51.442;10.564;2023-08-07T08:33:49;18.58;60.40
80134;SHT30;69443;51.442;10.564;2023-08-07T08:36:15;18.59;60.50
80134;SHT30;69443;51.442;10.564;2023-08-07T08:38:40;18.63;60.31
80134;SHT30;69443;51.442;10.564;2023-08-07T08:41:07;18.68;60.35
80134;SHT30;69443;51.442;10.564;2023-08-07T08:43:35;18.75;60.17
80134;SHT30;69443;51.442;10.564;2023-08-07T08:46:04;18.80;60.18
80134;SHT30;69443;51.442;10.564;2023-08-07T08:48:34;18.83;60.10
80134;SHT30;69443;51.442;10.564;2023-08-07T08:51:00;18.89;59.96
80134;SHT30;69443;51.442;10.564;2023-08-07T08:53:27;18.93;59.87
80134;SHT30;69443;51.442;10.564;2023-08-07T08:55:53;18.99;59.89
80134;SHT30;69443;51.442;10.564;2023-08-07T08:58:19;19.04;59.61
80134;SHT30;69443;51.442;10.564;2023-08-07T09:00:45;19.10;59.50
80134;SHT30;69443;51.442;10.564;2023-08-07T09:03:11;19.11;59.48
80134;SHT30;69443;51.442;10.564;2023-08-07T09:05:37;19.20;59.43
80134;SHT30;69443;51.442;10.564;2023-08-07T09:08:03;19.28;59.38
80134;SHT30;69443;51.442;10.564;2023-08-07T09:10:29;19.35;59.29
80134;SHT30;69443;51.442;10.564;2023-08-07T09:13:02;19.45;59.30
80134;SHT30;69443;51.442;10.564;2023-08-07T09:15:31;19.59;58.93
80134;SHT30;69443;51.442;10.564;2023-08-07T09:17:57;19.67;58.77
80134;SHT30;69443;51.442;10.564;2023-08-07T09:20:24;19.76;58.66
80134;SHT30;69443;51.442;10.564;2023-08-07T09:22:50;19.89;58.56
80134;SHT30;69443;51.442;10.564;2023-08-07T09:25:29;19.97;58.80
80134;SHT30;69443;51.442;10.564;2023-08-07T09:27:55;20.08;58.40
80134;SHT30;69443;51.442;10.564;2023-08-07T09:30:26;20.20;58.32
80134;SHT30;69443;51.442;10.564;2023-08-07T09:32:52;20.31;58.09
80134;SHT30;69443;51.442;10.564;2023-08-07T09:35:21;20.39;58.11
80134;SHT30;69443;51.442;10.564;2023-08-07T09:37:46;20.48;58.00
80134;SHT30;69443;51.442;10.564;2023-08-07T09:40:12;20.53;57.86
80134;SHT30;69443;51.442;10.564;2023-08-07T09:42:40;20.61;57.86
80134;SHT30;69443;51.442;10.564;2023-08-07T09:45:22;20.68;57.98
80134;SHT30;69443;51.442;10.564;2023-08-07T09:48:00;20.75;57.87
80134;SHT30;69443;51.442;10.564;2023-08-07T09:54:24;20.93;57.70
80134;SHT30;69443;51.442;10.564;2023-08-07T09:56:55;21.03;57.59
80134;SHT30;69443;51.442;10.564;2023-08-07T09:59:20;21.11;57.56
80134;SHT30;69443;51.442;10.564;2023-08-07T10:01:46;21.23;57.62
80134;SHT30;69443;51.442;10.564;2023-08-07T10:04:11;21.38;57.40
80134;SHT30;69443;51.442;10.564;2023-08-07T10:06:42;21.48;57.19
80134;SHT30;69443;51.442;10.564;2023-08-07T10:09:07;21.58;57.15
80134;SHT30;69443;51.442;10.564;2023-08-07T10:11:34;21.72;57.06
80134;SHT30;69443;51.442;10.564;2023-08-07T10:14:00;21.80;57.00
80134;SHT30;69443;51.442;10.564;2023-08-07T10:16:26;21.87;56.99
80134;SHT30;69443;51.442;10.564;2023-08-07T10:18:53;21.96;56.81
80134;SHT30;69443;51.442;10.564;2023-08-07T10:21:19;22.05;56.65
80134;SHT30;69443;51.442;10.564;2023-08-07T10:23:45;22.11;56.56
80134;SHT30;69443;51.442;10.564;2023-08-07T10:26:12;22.18;56.38
80134;SHT30;69443;51.442;10.564;2023-08-07T10:28:39;22.25;56.40
80134;SHT30;69443;51.442;10.564;2023-08-07T10:31:06;22.34;56.29
80134;SHT30;69443;51.442;10.564;2023-08-07T10:33:33;22.41;56.43
80134;SHT30;69443;51.442;10.564;2023-08-07T10:35:59;22.45;56.33
80134;SHT30;69443;51.442;10.564;2023-08-07T10:38:29;22.55;56.19
80134;SHT30;69443;51.442;10.564;2023-08-07T10:41:08;22.62;55.95
80134;SHT30;69443;51.442;10.564;2023-08-07T10:43:38;22.67;56.02
80134;SHT30;69443;51.442;10.564;2023-08-07T10:48:43;22.79;56.00
80134;SHT30;69443;51.442;10.564;2023-08-07T10:51:12;22.77;55.82
80134;SHT30;69443;51.442;10.564;2023-08-07T10:53:42;22.82;55.74
80134;SHT30;69443;51.442;10.564;2023-08-07T10:56:15;22.82;55.72
80134;SHT30;69443;51.442;10.564;2023-08-07T10:58:42;22.83;55.64
80134;SHT30;69443;51.442;10.564;2023-08-07T11:08:21;22.76;55.47
80134;SHT30;69443;51.442;10.564;2023-08-07T11:10:47;22.72;55.72
80134;SHT30;69443;51.442;10.564;2023-08-07T11:13:12;22.69;55.88
80134;SHT30;69443;51.442;10.564;2023-08-07T11:15:37;22.70;56.01
80134;SHT30;69443;51.442;10.564;2023-08-07T11:18:03;22.69;55.97
80134;SHT30;69443;51.442;10.564;2023-08-07T11:20:28;22.69;56.05
80134;SHT30;69443;51.442;10.564;2023-08-07T11:22:54;22.67;56.06
80134;SHT30;69443;51.442;10.564;2023-08-07T11:25:20;22.65;55.79
80134;SHT30;69443;51.442;10.564;2023-08-07T11:27:45;22.70;55.94
80134;SHT30;69443;51.442;10.564;2023-08-07T11:30:11;22.66;55.74
80134;SHT30;69443;51.442;10.564;2023-08-07T11:32:37;22.59;55.92
80134;SHT30;69443;51.442;10.564;2023-08-07T11:35:03;22.53;55.81
80134;SHT30;69443;51.442;10.564;2023-08-07T11:37:30;22.49;55.90
80134;SHT30;69443;51.442;10.564;2023-08-07T11:40:00;22.48;55.83
80134;SHT30;69443;51.442;10.564;2023-08-07T11:42:27;22.44;55.97
80134;SHT30;69443;51.442;10.564;2023-08-07T11:44:53;22.41;55.98
80134;SHT30;69443;51.442;10.564;2023-08-07T11:47:18;22.42;55.96
80134;SHT30;69443;51.442;10.564;2023-08-07T11:49:44;22.39;55.99
80134;SHT30;69443;51.442;10.564;2023-08-07T11:52:10;22.42;55.81
80134;SHT30;69443;51.442;10.564;2023-08-07T11:54:36;22.45;55.76
80134;SHT30;69443;51.442;10.564;2023-08-07T11:57:01;22.44;55.68
80134;SHT30;69443;51.442;10.564;2023-08-07T11:59:26;22.41;55.80
80134;SHT30;69443;51.442;10.564;2023-08-07T12:01:52;22.39;55.95
80134;SHT30;69443;51.442;10.564;2023-08-07T12:04:17;22.35;56.03
80134;SHT30;69443;51.442;10.564;2023-08-07T12:06:56;22.31;56.35
80134;SHT30;69443;51.442;10.564;2023-08-07T12:09:21;22.27;56.44
80134;SHT30;69443;51.442;10.564;2023-08-07T12:11:47;22.21;56.66
80134;SHT30;69443;51.442;10.564;2023-08-07T12:14:16;22.13;56.66
80134;SHT30;69443;51.442;10.564;2023-08-07T12:16:44;22.08;56.80
80134;SHT30;69443;51.442;10.564;2023-08-07T12:19:10;21.97;56.83
80134;SHT30;69443;51.442;10.564;2023-08-07T12:21:36;21.90;57.17
80134;SHT30;69443;51.442;10.564;2023-08-07T12:24:01;21.85;57.24
80134;SHT30;69443;51.442;10.564;2023-08-07T12:26:27;21.79;57.40
80134;SHT30;69443;51.442;10.564;2023-08-07T12:28:53;21.75;57.46
80134;SHT30;69443;51.442;10.564;2023-08-07T12:31:19;21.72;57.70
80134;SHT30;69443;51.442;10.564;2023-08-07T12:33:44;21.69;57.54
80134;SHT30;69443;51.442;10.564;2023-08-07T12:36:10;21.66;57.73
80134;SHT30;69443;51.442;10.564;2023-08-07T12:38:36;21.63;57.79
80134;SHT30;69443;51.442;10.564;2023-08-07T12:41:01;21.58;57.76
80134;SHT30;69443;51.442;10.564;2023-08-07T12:43:28;21.55;58.04
80134;SHT30;69443;51.442;10.564;2023-08-07T12:45:53;21.58;58.14
80134;SHT30;69443;51.442;10.564;2023-08-07T12:48:19;21.62;58.14
80134;SHT30;69443;51.442;10.564;2023-08-07T12:50:45;21.66;58.17
80134;SHT30;69443;51.442;10.564;2023-08-07T12:53:10;21.73;57.80
80134;SHT30;69443;51.442;10.564;2023-08-07T12:55:36;21.80;57.64
80134;SHT30;69443;51.442;10.564;2023-08-07T12:58:01;21.87;57.36
80134;SHT30;69443;51.442;10.564;2023-08-07T13:00:27;21.90;57.13
80134;SHT30;69443;51.442;10.564;2023-08-07T13:02:53;21.86;57.13
80134;SHT30;69443;51.442;10.564;2023-08-07T13:05:20;21.85;57.05
80134;SHT30;69443;51.442;10.564;2023-08-07T13:07:46;21.79;57.24
80134;SHT30;69443;51.442;10.564;2023-08-07T13:10:14;21.73;57.36
80134;SHT30;69443;51.442;10.564;2023-08-07T13:12:41;21.67;57.66
80134;SHT30;69443;51.442;10.564;2023-08-07T13:15:09;21.59;57.75
80134;SHT30;69443;51.442;10.564;2023-08-07T13:17:35;21.55;57.61
80134;SHT30;69443;51.442;10.564;2023-08-07T13:20:01;21.49;57.84
80134;SHT30;69443;51.442;10.564;2023-08-07T13:22:28;21.46;58.06
80134;SHT30;69443;51.442;10.564;2023-08-07T13:24:53;21.41;57.95
80134;SHT30;69443;51.442;10.564;2023-08-07T13:27:19;21.38;58.02
80134;SHT30;69443;51.442;10.564;2023-08-07T13:29:44;21.37;58.46
80134;SHT30;69443;51.442;10.564;2023-08-07T13:32:10;21.35;58.26
80134;SHT30;69443;51.442;10.564;2023-08-07T13:34:36;21.38;57.71
80134;SHT30;69443;51.442;10.564;2023-08-07T13:37:03;21.41;57.80
80134;SHT30;69443;51.442;10.564;2023-08-07T13:39:29;21.42;57.66
80134;SHT30;69443;51.442;10.564;2023-08-07T13:41:54;21.39;57.38
80134;SHT30;69443;51.442;10.564;2023-08-07T13:44:43;21.37;57.23
80134;SHT30;69443;51.442;10.564;2023-08-07T13:48:08;21.35;56.89
80134;SHT30;69443;51.442;10.564;2023-08-07T13:50:37;21.31;57.13
80134;SHT30;69443;51.442;10.564;2023-08-07T13:53:06;21.27;56.87
80134;SHT30;69443;51.442;10.564;2023-08-07T13:55:31;21.18;56.93
80134;SHT30;69443;51.442;10.564;2023-08-07T13:57:57;21.12;57.09
80134;SHT30;69443;51.442;10.564;2023-08-07T14:00:22;21.08;56.86
80134;SHT30;69443;51.442;10.564;2023-08-07T14:02:48;21.03;56.39
80134;SHT30;69443;51.442;10.564;2023-08-07T14:05:13;21.00;56.76
80134;SHT30;69443;51.442;10.564;2023-08-07T14:07:38;20.93;56.84
80134;SHT30;69443;51.442;10.564;2023-08-07T14:10:04;20.93;57.05
80134;SHT30;69443;51.442;10.564;2023-08-07T14:12:30;20.90;56.88
80134;SHT30;69443;51.442;10.564;2023-08-07T14:14:55;20.89;56.84
80134;SHT30;69443;51.442;10.564;2023-08-07T14:17:20;20.86;56.76
80134;SHT30;69443;51.442;10.564;2023-08-07T14:19:46;20.87;56.53
80134;SHT30;69443;51.442;10.564;2023-08-07T14:22:11;20.86;56.81
80134;SHT30;69443;51.442;10.564;2023-08-07T14:24:37;20.86;56.71
80134;SHT30;69443;51.442;10.564;2023-08-07T14:27:03;20.90;56.59
80134;SHT30;69443;51.442;10.564;2023-08-07T14:29:28;20.94;56.72
80134;SHT30;69443;51.442;10.564;2023-08-07T14:31:53;20.93;56.65
80134;SHT30;69443;51.442;10.564;2023-08-07T14:34:19;20.97;56.64
80134;SHT30;69443;51.442;10.564;2023-08-07T14:36:44;20.98;56.50
80134;SHT30;69443;51.442;10.564;2023-08-07T14:39:10;21.00;56.08
80134;SHT30;69443;51.442;10.564;2023-08-07T14:41:36;21.00;55.88
80134;SHT30;69443;51.442;10.564;2023-08-07T14:44:01;21.04;55.81
80134;SHT30;69443;51.442;10.564;2023-08-07T14:46:27;21.07;55.69
80134;SHT30;69443;51.442;10.564;2023-08-07T14:48:52;21.07;55.45
80134;SHT30;69443;51.442;10.564;2023-08-07T14:51:17;21.08;55.37
80134;SHT30;69443;51.442;10.564;2023-08-07T14:53:43;21.08;55.26
80134;SHT30;69443;51.442;10.564;2023-08-07T14:56:08;21.11;55.22
80134;SHT30;69443;51.442;10.564;2023-08-07T14:58:34;21.11;55.13
80134;SHT30;69443;51.442;10.564;2023-08-07T15:00:59;21.14;55.35
80134;SHT30;69443;51.442;10.564;2023-08-07T15:03:25;21.10;55.72
80134;SHT30;69443;51.442;10.564;2023-08-07T15:05:50;21.04;55.82
80134;SHT30;69443;51.442;10.564;2023-08-07T15:08:16;20.94;56.06
80134;SHT30;69443;51.442;10.564;2023-08-07T15:10:43;20.83;56.56
80134;SHT30;69443;51.442;10.564;2023-08-07T15:13:08;20.76;56.92
80134;SHT30;69443;51.442;10.564;2023-08-07T15:15:34;20.66;57.13
80134;SHT30;69443;51.442;10.564;2023-08-07T15:17:59;20.57;57.46
80134;SHT30;69443;51.442;10.564;2023-08-07T15:20:39;20.49;57.24
80134;SHT30;69443;51.442;10.564;2023-08-07T15:23:05;20.46;57.71
80134;SHT30;69443;51.442;10.564;2023-08-07T15:29:24;20.35;57.48
80134;SHT30;69443;51.442;10.564;2023-08-07T15:31:50;20.32;57.56